Wisconsin Dells, Wisconsin
Current Conditions -  °F | °C
As of 6:55 PM on Friday 24 Oct 2014 (Local Time) from KDLL Reporting Station
Overcast Overcast  
Wind Chill: 59°   Ceiling: 2600
Heat Index: 59°   Visibility: 10mi
Dew Point: 49°   Wind: 10mph
Humidity: 70%   Direction: 210°SSW
Pressure: 29.91"   Gusts: NA
Location:  43.63°N, 89.77°W
Report Text: KDLL 242355Z AUTO 21009KT 10SM OVC026 15/09 A2991 RMK AO2 T01480093 10161 20135
Loading
Personal Weather Stations






























Interactive Weather Map
Tropical Storm Tracking
New forecast layout! Learn more

10-Day Weather Forecast

Advertisements
Track Severe Weather on mobile